Time;durP1;ratioP1;P1;durP2;ratioP2;P2;SDS_P1;SDS_P2;PMS_P1;PMS_P2;Temp;Humidity;BMP_temperature;BMP_pressure;BME280_temperature;BME280_humidity;BME280_pressure;Samples;Min_cycle;Max_cycle;Signal;HPM_P1;HPM_P2
2022/10/11 00:00:11;;;;;;;8.10;4.22;;;;;;;6.75;63.13;100249.22;1823617;78;20956;-44
2022/10/11 00:02:37;;;;;;;9.63;3.70;;;;;;;6.72;63.14;100245.81;1817628;78;21161;-44
2022/10/11 00:05:06;;;;;;;5.65;3.80;;;;;;;6.72;63.18;100239.08;1817635;78;20952;-44
2022/10/11 00:07:33;;;;;;;6.42;3.77;;;;;;;6.71;63.05;100233.44;1823879;78;20925;-44
2022/10/11 00:10:00;;;;;;;5.87;3.75;;;;;;;6.67;63.05;100241.91;1823619;78;21003;-44
2022/10/11 00:12:27;;;;;;;7.12;3.87;;;;;;;6.63;63.10;100233.67;1823724;78;20989;-44
2022/10/11 00:14:53;;;;;;;5.70;3.45;;;;;;;6.60;63.21;100234.82;1823868;78;21651;-44
2022/10/11 00:17:20;;;;;;;8.80;3.90;;;;;;;6.59;63.33;100233.22;1817336;78;21699;-44
2022/10/11 00:19:47;;;;;;;7.85;4.08;;;;;;;6.55;63.34;100226.33;1823625;78;21517;-44
2022/10/11 00:22:14;;;;;;;6.47;3.55;;;;;;;6.52;63.40;100227.76;1823619;78;20960;-44
2022/10/11 00:24:40;;;;;;;5.00;3.52;;;;;;;6.50;63.45;100230.50;1823609;78;21083;-44
2022/10/11 00:27:07;;;;;;;6.50;3.47;;;;;;;6.51;63.51;100238.83;1823820;78;21225;-44
2022/10/11 00:29:35;;;;;;;6.80;3.60;;;;;;;6.55;63.51;100231.71;1823572;78;21478;-44
2022/10/11 00:32:03;;;;;;;6.08;3.60;;;;;;;6.61;63.50;100237.21;1823685;78;21024;-44
2022/10/11 00:34:30;;;;;;;4.90;3.55;;;;;;;6.61;63.44;100225.64;1824048;78;20941;-44
2022/10/11 00:36:57;;;;;;;5.80;3.67;;;;;;;6.62;63.29;100231.27;1823938;78;20988;-43
2022/10/11 00:39:24;;;;;;;4.97;3.52;;;;;;;6.59;62.96;100224.59;1823695;78;21097;-44
2022/10/11 00:41:51;;;;;;;8.05;3.58;;;;;;;6.55;62.81;100223.08;1823591;78;21508;-44
2022/10/11 00:44:21;;;;;;;5.70;4.15;;;;;;;6.53;62.71;100221.82;1823612;78;21013;-44
2022/10/11 00:47:04;;;;;;;4.70;3.60;;;;;;;6.48;62.67;100224.10;1823710;78;21019;-44
2022/10/11 00:49:44;;;;;;;5.50;3.83;;;;;;;6.43;62.70;100224.78;1825658;78;21074;-44
2022/10/11 00:52:30;;;;;;;6.12;3.80;;;;;;;6.36;62.84;100233.84;1831549;78;21884;-44
2022/10/11 00:55:00;;;;;;;6.25;4.25;;;;;;;6.29;63.02;100232.97;1831590;78;20964;-43
2022/10/11 00:57:29;;;;;;;6.95;3.80;;;;;;;6.19;63.21;100233.23;1831780;78;21505;-44
2022/10/11 00:59:56;;;;;;;6.85;4.17;;;;;;;6.15;63.19;100236.84;1802399;78;20944;-44
2022/10/11 01:02:23;;;;;;;5.92;3.75;;;;;;;6.07;63.22;100229.75;1831654;78;21004;-44
2022/10/11 01:04:50;;;;;;;9.73;4.25;;;;;;;6.02;63.29;100231.22;1831857;78;21911;-44
2022/10/11 01:07:20;;;;;;;7.12;4.10;;;;;;;5.97;63.34;100223.27;1831866;78;21474;-44
2022/10/11 01:09:48;;;;;;;5.00;3.12;;;;;;;5.97;63.39;100232.69;1831854;78;21023;-43
2022/10/11 01:12:20;;;;;;;9.90;4.55;;;;;;;6.01;63.40;100232.86;1831973;78;21498;-43
2022/10/11 01:15:14;;;;;;;6.00;4.35;;;;;;;6.04;63.64;100234.41;1832180;78;21059;-44
2022/10/11 01:18:04;;;;;;;7.80;4.70;;;;;;;6.06;63.75;100235.42;1831455;78;23096;-43
2022/10/11 01:20:59;;;;;;;7.05;4.35;;;;;;;6.03;63.91;100236.05;1830031;78;20951;-43
2022/10/11 01:23:51;;;;;;;8.63;4.22;;;;;;;5.96;64.11;100243.20;1831387;78;20988;-43
2022/10/11 01:26:35;;;;;;;8.35;4.08;;;;;;;5.91;64.23;100239.84;1830850;78;20988;-44
2022/10/11 01:29:34;;;;;;;5.90;3.60;;;;;;;5.82;64.37;100241.65;1831289;78;20979;-44
2022/10/11 01:32:18;;;;;;;7.03;3.77;;;;;;;5.67;64.67;100238.22;1733575;82;21159;-43
2022/10/11 01:35:10;;;;;;;8.98;3.87;;;;;;;5.67;64.67;100238.22;1709337;82;21457;-43
2022/10/11 01:37:41;;;;;;;5.87;4.03;;;;;;;5.64;64.49;100232.12;1795685;78;21008;-43
2022/10/11 01:40:22;;;;;;;7.22;4.60;;;;;;;5.63;64.72;100233.77;1831614;78;20992;-44
2022/10/11 01:42:48;;;;;;;9.38;4.42;;;;;;;5.67;64.77;100228.81;1831667;78;20987;-43
2022/10/11 01:45:18;;;;;;;7.97;4.37;;;;;;;5.75;64.79;100227.84;1831621;78;21194;-43
2022/10/11 01:47:44;;;;;;;6.08;4.60;;;;;;;5.83;64.83;100223.06;1831837;78;20975;-44
2022/10/11 01:50:38;;;;;;;8.00;4.60;;;;;;;5.87;64.91;100222.17;1824604;78;21542;-44
2022/10/11 01:53:44;;;;;;;9.90;4.47;;;;;;;5.91;64.91;100226.38;1793042;80;21609;-43
2022/10/11 01:56:34;;;;;;;8.28;4.45;;;;;;;5.92;64.71;100225.28;1822762;78;21093;-43
2022/10/11 01:59:32;;;;;;;6.45;4.00;;;;;;;5.84;64.66;100232.19;1830723;77;21129;-43
2022/10/11 02:02:38;;;;;;;5.90;3.98;;;;;;;5.68;64.74;100235.78;1825200;78;20984;-43
2022/10/11 02:05:25;;;;;;;8.05;4.22;;;;;;;5.52;65.21;100230.51;1831601;78;20977;-43
2022/10/11 02:08:10;;;;;;;8.73;4.30;;;;;;;5.42;65.52;100238.80;1831409;78;20940;-43
2022/10/11 02:10:45;;;;;;;5.35;3.70;;;;;;;5.39;65.52;100239.97;1831098;78;20973;-43
2022/10/11 02:13:18;;;;;;;5.67;4.12;;;;;;;5.41;65.25;100237.78;1831566;78;21192;-43
2022/10/11 02:15:45;;;;;;;8.15;4.40;;;;;;;5.46;65.12;100239.02;1831404;78;21405;-44
2022/10/11 02:18:20;;;;;;;6.25;3.90;;;;;;;5.52;64.94;100235.89;1831452;78;20961;-43
2022/10/11 02:20:46;;;;;;;7.67;4.00;;;;;;;5.54;64.93;100231.02;1831819;78;20956;-44
2022/10/11 02:23:21;;;;;;;8.70;3.80;;;;;;;5.58;64.87;100229.84;1831462;78;21016;-44
2022/10/11 02:25:48;;;;;;;7.50;3.37;;;;;;;5.59;64.57;100227.41;1831833;78;21063;-44
2022/10/11 02:28:20;;;;;;;6.97;3.55;;;;;;;5.61;64.48;100230.60;1831529;78;21003;-44
2022/10/11 02:30:47;;;;;;;6.28;3.62;;;;;;;5.60;64.64;100229.80;1831667;78;20952;-44
2022/10/11 02:33:17;;;;;;;9.73;3.62;;;;;;;5.61;64.74;100219.84;1831413;78;21604;-43
2022/10/11 02:35:46;;;;;;;;;;;;;;;5.59;64.51;100222.83;1834599;78;20996;-44
2022/10/11 02:38:18;;;;;;;5.70;3.40;;;;;;;5.57;64.32;100220.98;1831867;78;21075;-43
2022/10/11 02:40:47;;;;;;;9.53;3.10;;;;;;;5.44;64.55;100218.34;1831885;78;20991;-44
2022/10/11 02:43:22;;;;;;;4.20;2.77;;;;;;;5.43;64.57;100218.89;1831952;78;20913;-44
2022/10/11 02:45:57;;;;;;;4.47;3.20;;;;;;;5.41;64.29;100214.93;1831491;77;21564;-43
2022/10/11 02:48:27;;;;;;;4.35;3.10;;;;;;;5.36;64.57;100218.53;1831649;78;20952;-44
2022/10/11 02:50:54;;;;;;;8.60;3.10;;;;;;;5.38;64.63;100221.69;1840031;76;21880;-44
2022/10/11 02:53:23;;;;;;;6.78;3.15;;;;;;;5.42;64.46;100219.98;1865284;77;28313;-44
2022/10/11 02:55:52;;;;;;;4.78;3.58;;;;;;;5.45;64.49;100220.73;1863769;76;21003;-43
2022/10/11 02:58:19;;;;;;;6.28;3.55;;;;;;;5.47;64.52;100219.09;1865303;77;21541;-44
2022/10/11 03:00:45;;;;;;;5.62;2.98;;;;;;;5.49;64.51;100220.91;1861724;76;21003;-43
2022/10/11 03:03:12;;;;;;;4.40;3.10;;;;;;;5.50;64.51;100223.31;1865373;77;21124;-44
2022/10/11 03:05:42;;;;;;;5.25;2.83;;;;;;;5.52;64.67;100222.44;1862659;76;20948;-44
2022/10/11 03:08:12;;;;;;;4.47;3.02;;;;;;;5.53;64.58;100213.28;1846851;76;21014;-44
2022/10/11 03:10:39;;;;;;;7.00;3.02;;;;;;;5.55;64.64;100217.02;1863364;76;21043;-44
2022/10/11 03:13:06;;;;;;;5.97;3.40;;;;;;;5.53;64.50;100217.31;1834114;76;21057;-44
2022/10/11 03:15:34;;;;;;;7.12;3.02;;;;;;;5.49;64.15;100210.95;1863135;76;21115;-43
2022/10/11 03:18:03;;;;;;;3.65;2.85;;;;;;;5.44;64.02;100215.11;1856149;76;21482;-43
2022/10/11 03:20:30;;;;;;;4.85;3.08;;;;;;;5.41;64.00;100209.00;1865432;77;21489;-44
2022/10/11 03:22:57;;;;;;;6.17;3.30;;;;;;;5.35;63.92;100218.28;1865514;77;21035;-44
2022/10/11 03:25:24;;;;;;;5.17;3.25;;;;;;;5.32;63.83;100220.23;1856848;77;21040;-44
2022/10/11 03:27:51;;;;;;;5.15;2.90;;;;;;;5.28;64.04;100227.88;1863793;76;21536;-43
2022/10/11 03:30:19;;;;;;;7.80;3.10;;;;;;;5.29;64.20;100224.06;1862696;76;21475;-43
2022/10/11 03:32:45;;;;;;;4.58;2.90;;;;;;;5.34;64.40;100219.92;1865263;76;20987;-42
2022/10/11 03:35:12;;;;;;;5.58;2.70;;;;;;;5.41;64.21;100225.14;1863312;76;21583;-43
2022/10/11 03:37:39;;;;;;;6.05;3.10;;;;;;;5.39;63.89;100228.67;1864894;77;21076;-43
2022/10/11 03:40:07;;;;;;;8.80;2.98;;;;;;;5.37;63.79;100224.16;1861299;76;21607;-43
2022/10/11 03:42:36;;;;;;;6.00;3.40;;;;;;;5.38;63.98;100232.45;1865181;76;20952;-40
2022/10/11 03:45:07;;;;;;;6.42;3.35;;;;;;;5.37;64.06;100226.84;1864916;76;21019;-42
2022/10/11 03:47:35;;;;;;;5.50;2.92;;;;;;;5.35;63.86;100230.92;1865504;77;21428;-43
2022/10/11 03:50:04;;;;;;;5.25;3.45;;;;;;;5.32;64.09;100222.92;1865721;76;21071;-42
2022/10/11 03:52:31;;;;;;;7.47;3.60;;;;;;;5.31;63.91;100221.88;1865631;77;21775;-43
2022/10/11 03:54:58;;;;;;;5.15;3.22;;;;;;;5.25;63.69;100226.56;1865268;77;20977;-43
2022/10/11 03:57:25;;;;;;;6.00;3.22;;;;;;;5.18;63.47;100222.17;1865260;77;21326;-43
2022/10/11 03:59:52;;;;;;;5.55;3.22;;;;;;;4.76;63.57;100163.66;1865507;77;21024;-43
2022/10/11 04:02:18;;;;;;;7.00;3.72;;;;;;;5.10;63.94;100217.48;1865562;77;21067;-43
2022/10/11 04:04:45;;;;;;;6.37;3.08;;;;;;;5.07;64.28;100222.13;1865639;77;21125;-43
2022/10/11 04:07:13;;;;;;;4.72;3.10;;;;;;;5.08;64.21;100219.13;1865502;77;21059;-43
2022/10/11 04:09:40;;;;;;;5.08;3.12;;;;;;;5.14;64.19;100223.84;1865296;76;21047;-43
2022/10/11 04:12:07;;;;;;;4.62;3.25;;;;;;;5.18;64.05;100226.20;1865605;77;21000;-43
2022/10/11 04:14:34;;;;;;;4.85;3.40;;;;;;;5.20;64.46;100229.37;1865523;77;21016;-43
2022/10/11 04:17:01;;;;;;;8.05;3.90;;;;;;;5.22;64.74;100229.33;1865480;77;21132;-43
2022/10/11 04:19:27;;;;;;;5.45;3.37;;;;;;;5.26;64.93;100225.48;1865309;77;21516;-43
2022/10/11 04:21:54;;;;;;;4.17;2.92;;;;;;;5.29;64.93;100230.78;1865418;77;21047;-43
2022/10/11 04:24:21;;;;;;;5.83;3.40;;;;;;;5.29;65.11;100227.55;1865362;77;21597;-43
2022/10/11 04:26:48;;;;;;;5.55;3.72;;;;;;;5.30;65.28;100223.77;1865415;77;21334;-43
2022/10/11 04:29:14;;;;;;;6.17;3.42;;;;;;;5.30;65.22;100229.14;1865260;77;23169;-43
2022/10/11 04:31:42;;;;;;;4.50;3.33;;;;;;;5.30;65.34;100230.48;1865608;77;21535;-43
2022/10/11 04:34:08;;;;;;;6.83;3.55;;;;;;;5.30;65.54;100228.34;1865601;76;20996;-43
2022/10/11 04:36:35;;;;;;;7.12;3.70;;;;;;;5.34;65.51;100229.33;1865614;77;20982;-43
2022/10/11 04:39:02;;;;;;;7.62;3.75;;;;;;;5.42;65.15;100221.91;1865779;77;20988;-43
2022/10/11 04:41:29;;;;;;;7.10;3.52;;;;;;;5.47;64.94;100217.17;1865688;77;21121;-43
2022/10/11 04:43:57;;;;;;;7.47;3.62;;;;;;;5.50;65.01;100219.27;1865656;77;20968;-43
2022/10/11 04:46:24;;;;;;;10.43;3.42;;;;;;;5.52;64.78;100222.44;1865470;77;20976;-43
2022/10/11 04:48:51;;;;;;;5.95;3.30;;;;;;;5.55;64.74;100221.84;1865488;77;21501;-43
2022/10/11 04:51:18;;;;;;;5.12;3.55;;;;;;;5.55;64.72;100220.50;1856714;77;20989;-43
2022/10/11 04:53:44;;;;;;;6.72;4.30;;;;;;;5.54;64.79;100221.59;1859493;77;21656;-43
2022/10/11 04:56:11;;;;;;;6.33;3.55;;;;;;;5.53;64.73;100220.00;1859439;77;20952;-43
2022/10/11 04:58:39;;;;;;;10.98;3.70;;;;;;;5.50;64.87;100221.97;1859404;77;21008;-43
2022/10/11 05:01:07;;;;;;;6.12;3.70;;;;;;;5.49;65.06;100224.95;1859534;77;21008;-43
2022/10/11 05:03:36;;;;;;;6.50;3.40;;;;;;;5.48;65.24;100222.81;1859620;77;21028;-43
2022/10/11 05:06:04;;;;;;;6.45;3.55;;;;;;;5.52;65.57;100225.12;1859676;77;21553;-43
2022/10/11 05:08:31;;;;;;;6.28;4.10;;;;;;;5.60;65.62;100233.03;1859276;77;21509;-43
2022/10/11 05:10:59;;;;;;;7.08;4.28;;;;;;;5.69;65.59;100232.00;1859403;77;20921;-43
2022/10/11 05:13:27;;;;;;;8.00;4.72;;;;;;;5.73;65.78;100231.38;1859646;77;21520;-43
2022/10/11 05:15:54;;;;;;;7.78;4.37;;;;;;;5.78;66.00;100230.71;1859610;77;21059;-43
2022/10/11 05:18:21;;;;;;;9.05;5.20;;;;;;;5.82;66.04;100228.20;1859799;77;21805;-43
2022/10/11 05:21:07;;;;;;;9.05;5.75;;;;;;;5.88;65.89;100229.70;1859416;77;20963;-43
2022/10/11 05:23:35;;;;;;;10.25;5.37;;;;;;;5.91;65.80;100227.73;1858372;77;21521;-43
2022/10/11 05:26:02;;;;;;;9.50;4.72;;;;;;;5.94;65.81;100235.20;1859754;77;20996;-43
2022/10/11 05:28:29;;;;;;;7.72;4.60;;;;;;;5.97;65.86;100235.93;1859377;77;20995;-43
2022/10/11 05:30:57;;;;;;;8.20;4.70;;;;;;;5.97;65.80;100235.38;1859396;77;21228;-43
2022/10/11 05:33:24;;;;;;;6.00;4.20;;;;;;;6.01;65.72;100233.66;1859391;77;20948;-43
2022/10/11 05:35:51;;;;;;;6.97;4.20;;;;;;;6.07;65.73;100232.44;1859558;77;20944;-43
2022/10/11 05:38:18;;;;;;;5.67;4.40;;;;;;;6.16;65.71;100233.83;1859424;77;21269;-43
2022/10/11 05:40:45;;;;;;;5.90;4.37;;;;;;;6.21;65.76;100234.25;1859369;77;21079;-43
2022/10/11 05:43:12;;;;;;;7.80;4.78;;;;;;;6.26;65.85;100238.95;1859562;77;21097;-43
2022/10/11 05:45:41;;;;;;;8.05;5.40;;;;;;;6.32;65.99;100233.68;1859389;77;21265;-43
2022/10/11 05:48:08;;;;;;;8.30;5.05;;;;;;;6.38;66.09;100233.00;1859628;77;21003;-43
2022/10/11 05:50:35;;;;;;;8.68;4.55;;;;;;;6.41;66.07;100233.17;1859249;77;20981;-43
2022/10/11 05:53:02;;;;;;;5.72;3.95;;;;;;;6.45;66.22;100235.48;1851829;77;21063;-43
2022/10/11 05:55:31;;;;;;;6.15;4.22;;;;;;;6.48;66.24;100237.57;1851877;77;21219;-43
2022/10/11 05:57:59;;;;;;;5.35;4.15;;;;;;;6.57;66.18;100235.45;1851787;77;27412;-43
2022/10/11 06:00:26;;;;;;;6.75;3.77;;;;;;;6.67;66.20;100235.97;1851756;77;21518;-43
2022/10/11 06:02:53;;;;;;;4.87;3.90;;;;;;;6.79;66.24;100234.81;1851671;77;21020;-43
2022/10/11 06:05:20;;;;;;;5.05;3.15;;;;;;;6.88;66.32;100237.52;1851562;77;21286;-43
2022/10/11 06:07:48;;;;;;;4.95;3.55;;;;;;;6.96;66.36;100235.42;1851439;77;21092;-43
2022/10/11 06:10:15;;;;;;;8.20;3.55;;;;;;;7.07;66.35;100238.62;1851641;77;20960;-43
2022/10/11 06:12:42;;;;;;;5.75;3.72;;;;;;;7.16;66.19;100238.88;1851608;77;20984;-43
2022/10/11 06:15:10;;;;;;;9.20;5.90;;;;;;;7.25;66.17;100242.38;1851610;77;21044;-43
2022/10/11 06:17:37;;;;;;;9.20;5.10;;;;;;;7.32;66.17;100245.94;1851705;77;21498;-43
2022/10/11 06:20:06;;;;;;;6.08;3.45;;;;;;;7.35;66.27;100239.93;1851553;77;21130;-43
2022/10/11 06:22:33;;;;;;;7.58;3.60;;;;;;;7.42;66.15;100242.38;1845593;77;20987;-43
2022/10/11 06:24:59;;;;;;;5.53;3.70;;;;;;;7.52;66.11;100239.12;1851714;77;20985;-43
2022/10/11 06:27:26;;;;;;;7.87;3.80;;;;;;;7.61;65.96;100235.87;1851492;77;20960;-43
2022/10/11 06:29:53;;;;;;;4.83;3.55;;;;;;;7.69;65.90;100235.09;1851515;77;21039;-43
2022/10/11 06:32:19;;;;;;;4.90;3.65;;;;;;;7.79;65.67;100236.89;1851451;77;23144;-43
2022/10/11 06:34:46;;;;;;;5.62;3.67;;;;;;;7.90;65.47;100238.70;1851931;77;21510;-43
2022/10/11 06:37:13;;;;;;;7.72;4.28;;;;;;;7.97;65.52;100237.67;1851816;77;21560;-43
2022/10/11 06:39:41;;;;;;;6.20;4.10;;;;;;;8.05;65.48;100234.16;1851597;77;21008;-43
2022/10/11 06:42:10;;;;;;;5.90;3.60;;;;;;;8.13;65.59;100229.87;1851805;77;21065;-43
2022/10/11 06:44:38;;;;;;;6.65;3.75;;;;;;;8.20;65.70;100224.20;1852176;77;21770;-43
2022/10/11 06:47:05;;;;;;;7.05;2.92;;;;;;;8.27;65.62;100223.16;1851754;77;20905;-43
2022/10/11 06:49:33;;;;;;;8.90;5.05;;;;;;;8.39;65.62;100225.75;1851755;77;20964;-43
2022/10/11 06:52:00;;;;;;;8.40;5.28;;;;;;;8.52;65.47;100228.23;1858194;76;20948;-42
2022/10/11 06:54:27;;;;;;;7.37;3.92;;;;;;;8.65;65.46;100226.45;1865244;77;21058;-42
2022/10/11 06:56:53;;;;;;;6.05;3.98;;;;;;;8.76;65.35;100229.58;1865544;76;21939;-42
2022/10/11 06:59:22;;;;;;;9.10;5.00;;;;;;;8.84;65.26;100233.59;1865290;77;21561;-42
2022/10/11 07:01:49;;;;;;;5.12;2.30;;;;;;;8.92;65.28;100236.00;1865616;76;20985;-42
2022/10/11 07:04:15;;;;;;;4.83;2.87;;;;;;;9.02;64.80;100235.62;1865448;77;21477;-42
2022/10/11 07:06:43;;;;;;;6.53;2.95;;;;;;;9.10;64.56;100224.75;1865276;77;21485;-42
2022/10/11 07:09:10;;;;;;;5.17;2.58;;;;;;;9.20;64.11;100226.27;1865247;77;23209;-42
2022/10/11 07:11:37;;;;;;;4.67;2.37;;;;;;;9.29;63.82;100227.59;1865342;77;20992;-42
2022/10/11 07:14:06;;;;;;;1.95;1.32;;;;;;;9.37;63.96;100231.58;1865589;77;21497;-42
2022/10/11 07:16:35;;;;;;;4.42;2.10;;;;;;;9.43;63.49;100230.83;1865441;77;20984;-41
2022/10/11 07:19:04;;;;;;;3.27;1.70;;;;;;;9.49;63.49;100226.77;1865496;77;21028;-42
2022/10/11 07:21:32;;;;;;;1.07;0.98;;;;;;;9.58;63.08;100229.64;1865988;76;21470;-43
2022/10/11 07:23:59;;;;;;;4.75;1.30;;;;;;;9.71;62.93;100226.44;1865516;77;21058;-43
2022/10/11 07:26:26;;;;;;;2.87;1.60;;;;;;;9.88;62.56;100226.27;1865294;77;21035;-43
2022/10/11 07:28:53;;;;;;;2.65;1.52;;;;;;;10.00;62.05;100217.41;1865541;77;21032;-43
2022/10/11 07:31:23;;;;;;;1.80;1.27;;;;;;;10.12;61.89;100216.66;1865476;77;21031;-43
2022/10/11 07:33:50;;;;;;;1.85;1.45;;;;;;;10.25;61.41;100225.06;1865924;76;21218;-43
2022/10/11 07:36:17;;;;;;;3.98;1.20;;;;;;;10.40;61.15;100220.35;1865457;77;21041;-43
2022/10/11 07:38:45;;;;;;;1.60;1.20;;;;;;;10.51;60.11;100220.12;1865350;77;20924;-42
2022/10/11 07:41:13;;;;;;;1.60;1.17;;;;;;;10.63;59.13;100220.14;1865983;77;21497;-42
2022/10/11 07:43:39;;;;;;;2.10;1.35;;;;;;;10.75;58.97;100215.27;1865819;77;21478;-42
2022/10/11 07:46:06;;;;;;;2.65;1.30;;;;;;;10.85;58.97;100211.53;1865570;77;23133;-42
2022/10/11 07:48:34;;;;;;;3.60;1.50;;;;;;;10.98;58.97;100208.83;1865507;77;20972;-42
2022/10/11 07:51:10;;;;;;;3.30;1.72;;;;;;;11.08;58.45;100207.01;1865584;77;20948;-42
2022/10/11 07:56:43;;;;;;;2.37;1.20;;;;;;;11.37;58.06;100195.86;1808947;77;22676;-42
2022/10/11 07:59:09;;;;;;;2.90;1.02;;;;;;;11.42;55.98;100198.33;1761792;81;21019;-43
2022/10/11 08:01:38;;;;;;;2.27;1.30;;;;;;;11.51;55.58;100209.05;1761727;81;20937;-43
2022/10/11 08:04:04;;;;;;;1.72;1.02;;;;;;;11.61;55.58;100208.56;1761705;81;20956;-43
2022/10/11 08:06:35;;;;;;;0.88;0.80;;;;;;;11.71;55.23;100208.83;1765007;79;20929;-43
2022/10/11 08:09:02;;;;;;;1.10;0.93;;;;;;;11.83;54.91;100208.59;1777429;80;21270;-43
2022/10/11 08:11:33;;;;;;;2.08;0.90;;;;;;;11.92;54.69;100197.00;1749115;82;21793;-44
2022/10/11 08:14:03;;;;;;;2.87;0.90;;;;;;;12.01;53.75;100194.91;1749142;82;21755;-44
2022/10/11 08:16:31;;;;;;;1.77;0.90;;;;;;;12.11;52.50;100195.77;1745048;82;20902;-43
2022/10/11 08:18:59;;;;;;;3.67;0.90;;;;;;;12.16;52.13;100192.22;1752497;81;21000;-44
2022/10/11 08:21:26;;;;;;;1.70;0.90;;;;;;;12.25;51.63;100187.97;1752170;81;21030;-43
2022/10/11 08:23:53;;;;;;;0.88;0.70;;;;;;;12.34;51.63;100182.38;1752427;81;21056;-44
2022/10/11 08:26:20;;;;;;;2.58;0.85;;;;;;;12.43;51.15;100185.14;1752444;81;21904;-44
2022/10/11 08:28:47;;;;;;;4.03;1.02;;;;;;;12.52;50.52;100181.67;1752417;81;20976;-44
2022/10/11 08:31:15;;;;;;;1.50;1.00;;;;;;;12.63;50.00;100187.38;1752444;81;20961;-44
2022/10/11 08:33:42;;;;;;;1.55;1.10;;;;;;;12.73;49.40;100180.60;1752321;81;20974;-44
2022/10/11 08:36:10;;;;;;;2.00;0.90;;;;;;;12.85;48.91;100183.20;1752295;81;21503;-44
2022/10/11 08:38:37;;;;;;;1.47;0.95;;;;;;;12.95;48.07;100175.28;1752177;81;21089;-44
2022/10/11 08:41:28;;;;;;;1.75;1.00;;;;;;;13.07;48.01;100179.80;1752260;81;21028;-44
2022/10/11 08:43:59;;;;;;;1.75;1.00;;;;;;;13.19;47.12;100178.92;1752428;81;21509;-44
2022/10/11 08:46:33;;;;;;;1.47;0.90;;;;;;;13.26;47.11;100180.45;1752458;81;21007;-44
2022/10/11 08:49:01;;;;;;;1.27;0.85;;;;;;;13.33;46.02;100181.38;1752336;81;21019;-44
2022/10/11 08:51:35;;;;;;;1.15;0.82;;;;;;;13.42;45.84;100172.41;1752303;81;21142;-44
2022/10/11 08:54:21;;;;;;;1.72;1.00;;;;;;;13.54;45.79;100173.42;1752234;81;21016;-44
2022/10/11 08:56:48;;;;;;;1.17;0.80;;;;;;;13.65;45.95;100176.55;1742745;81;20949;-44
2022/10/11 08:59:32;;;;;;;1.37;1.02;;;;;;;13.74;45.03;100168.17;1777258;80;21020;-44
2022/10/11 09:02:11;;;;;;;1.25;1.02;;;;;;;13.81;44.99;100173.17;1777202;80;21534;-44
2022/10/11 09:04:38;;;;;;;1.50;1.00;;;;;;;13.85;44.21;100169.14;1776182;80;23136;-44
2022/10/11 09:07:20;;;;;;;3.85;1.10;;;;;;;13.84;44.13;100168.95;1777065;80;21019;-44
2022/10/11 09:09:54;;;;;;;3.22;1.57;;;;;;;13.82;44.71;100173.39;1776611;80;21067;-43
2022/10/11 09:12:27;;;;;;;2.55;1.50;;;;;;;13.80;43.76;100166.14;1738145;82;20976;-44
2022/10/11 09:15:32;;;;;;;7.10;2.20;;;;;;;13.77;43.46;100163.36;1736786;82;21029;-43
2022/10/11 09:18:41;;;;;;;2.70;2.00;;;;;;;13.75;43.37;100161.55;1755665;81;23135;-44
2022/10/11 09:21:22;;;;;;;2.98;1.90;;;;;;;13.70;43.28;100165.36;1737910;82;20949;-43
2022/10/11 09:24:16;;;;;;;2.80;1.92;;;;;;;13.64;43.50;100160.58;1737917;82;21017;-44
2022/10/11 09:27:02;;;;;;;2.55;1.82;;;;;;;13.68;44.05;100164.16;1734361;82;20998;-43
2022/10/11 09:29:47;;;;;;;2.90;1.50;;;;;;;13.80;44.12;100162.05;1720769;82;21077;-44
2022/10/11 09:32:17;;;;;;;2.15;1.32;;;;;;;13.90;42.13;100159.31;1736425;82;21130;-44
2022/10/11 09:34:44;;;;;;;1.75;1.25;;;;;;;13.94;42.06;100157.46;1755673;81;20969;-44
2022/10/11 09:37:25;;;;;;;2.00;1.30;;;;;;;14.00;41.27;100153.27;1713821;82;21002;-44
2022/10/11 09:40:10;;;;;;;3.12;1.25;;;;;;;14.12;41.87;100151.73;1738067;82;21024;-44
2022/10/11 09:42:37;;;;;;;2.37;1.20;;;;;;;13.96;41.68;100107.44;1733966;82;21014;-44
2022/10/11 09:45:17;;;;;;;2.67;1.45;;;;;;;14.38;41.44;100151.61;1741327;82;21138;-44
2022/10/11 09:47:45;;;;;;;3.30;1.22;;;;;;;14.52;41.75;100149.11;1741492;82;20933;-44
2022/10/11 09:50:19;;;;;;;1.82;1.27;;;;;;;14.70;42.04;100148.79;1741620;82;20933;-44
2022/10/11 09:52:54;;;;;;;1.80;1.12;;;;;;;14.92;41.78;100139.73;1776186;80;20964;-44
2022/10/11 09:55:43;;;;;;;1.40;1.17;;;;;;;15.20;40.79;100145.56;1777736;80;21024;-44
2022/10/11 09:58:33;;;;;;;2.33;1.37;;;;;;;15.47;40.27;100136.73;1786129;80;21519;-44
2022/10/11 10:01:08;;;;;;;2.50;1.20;;;;;;;15.73;39.14;100135.89;1785876;80;20920;-44
2022/10/11 10:03:39;;;;;;;1.87;1.35;;;;;;;15.93;39.89;100130.40;1785899;80;21573;-44
2022/10/11 10:06:13;;;;;;;2.27;1.20;;;;;;;16.20;38.85;100129.68;1786147;80;21011;-44
2022/10/11 10:08:44;;;;;;;2.62;1.30;;;;;;;16.44;38.40;100120.88;1785937;80;20925;-44
2022/10/11 10:11:11;;;;;;;1.47;1.20;;;;;;;16.69;38.25;100122.45;1667686;84;21161;-44
2022/10/11 10:13:48;;;;;;;1.92;1.50;;;;;;;16.93;37.35;100131.39;1727857;83;20945;-44
2022/10/11 10:16:32;;;;;;;2.30;1.70;;;;;;;17.05;36.91;100128.11;1727782;83;21498;-44
2022/10/11 10:19:05;;;;;;;2.10;1.50;;;;;;;17.12;37.67;100127.58;1727760;83;21769;-44
2022/10/11 10:21:35;;;;;;;4.15;1.52;;;;;;;17.27;37.53;100121.56;1727473;83;21076;-44
2022/10/11 10:24:06;;;;;;;3.00;1.50;;;;;;;17.51;37.34;100117.34;1727728;83;21846;-44
2022/10/11 10:26:33;;;;;;;2.47;1.70;;;;;;;17.73;36.63;100112.13;1727388;83;21083;-44
2022/10/11 10:29:15;;;;;;;1.95;1.60;;;;;;;17.98;35.86;100113.53;1727531;83;21016;-44
2022/10/11 10:31:53;;;;;;;2.05;1.60;;;;;;;18.23;35.32;100104.73;1727329;83;21032;-44
2022/10/11 10:34:30;;;;;;;2.67;1.40;;;;;;;18.38;34.33;100100.80;1727744;83;20988;-44
2022/10/11 10:37:19;;;;;;;2.60;1.55;;;;;;;18.44;34.79;100101.98;1727828;83;21889;-44
2022/10/11 10:39:59;;;;;;;2.72;1.57;;;;;;;18.54;35.25;100098.44;1715176;83;21000;-44
2022/10/11 10:42:26;;;;;;;4.45;1.60;;;;;;;18.78;35.04;100094.69;1727561;83;21022;-45
2022/10/11 10:44:55;;;;;;;4.40;1.50;;;;;;;19.03;34.67;100088.49;1671588;83;21060;-45
2022/10/11 10:48:01;;;;;;;2.37;1.62;;;;;;;19.27;34.54;100088.98;1727613;83;21667;-45
2022/10/11 10:50:34;;;;;;;1.92;1.30;;;;;;;19.40;32.84;100080.48;1727310;83;21143;-44
2022/10/11 10:53:35;;;;;;;2.77;1.70;;;;;;;19.27;31.50;100072.48;1725959;83;21545;-45
2022/10/11 10:56:14;;;;;;;4.40;1.82;;;;;;;19.10;31.17;100074.15;1732150;81;21012;-45
2022/10/11 10:58:53;;;;;;;2.45;1.70;;;;;;;18.93;31.72;100073.61;1747040;81;21045;-44
2022/10/11 11:01:26;;;;;;;2.37;1.40;;;;;;;18.86;32.54;100072.28;1747216;82;21012;-44
2022/10/11 11:04:11;;;;;;;3.65;1.75;;;;;;;18.90;33.05;100066.17;1747213;81;21197;-44
2022/10/11 11:06:48;;;;;;;2.42;1.50;;;;;;;19.16;32.61;100063.53;1746974;81;20957;-44
2022/10/11 11:09:55;;;;;;;2.02;1.50;;;;;;;19.52;31.50;100060.78;1747050;82;21009;-44
2022/10/11 11:13:01;;;;;;;2.72;1.60;;;;;;;19.77;29.92;100046.87;1747062;81;20902;-44
2022/10/11 11:15:47;;;;;;;3.75;1.98;;;;;;;19.92;30.77;100040.66;1746784;82;21029;-45
2022/10/11 11:18:28;;;;;;;5.50;2.08;;;;;;;20.09;30.31;100049.97;1741832;82;21136;-44
2022/10/11 11:21:30;;;;;;;5.00;2.37;;;;;;;19.97;29.49;100041.60;1746694;82;21542;-45
2022/10/11 11:24:06;;;;;;;5.10;2.80;;;;;;;19.76;28.41;100051.39;1732094;81;20990;-45
2022/10/11 11:27:05;;;;;;;3.58;2.40;;;;;;;19.46;28.80;100042.38;1768212;81;21343;-45
2022/10/11 11:29:53;;;;;;;3.27;2.47;;;;;;;19.36;28.60;100045.36;1768284;81;21091;-45
2022/10/11 11:33:01;;;;;;;2.47;1.67;;;;;;;19.46;28.53;100038.26;1768429;81;21224;-45
2022/10/11 11:35:38;;;;;;;3.42;1.67;;;;;;;19.69;28.03;100035.73;1768277;81;21518;-45
2022/10/11 11:38:23;;;;;;;4.33;1.70;;;;;;;19.87;27.79;100039.72;1768339;81;21526;-45
2022/10/11 11:41:01;;;;;;;2.70;1.77;;;;;;;20.10;28.29;100030.27;1768396;81;20942;-45
2022/10/11 11:43:54;;;;;;;3.05;1.80;;;;;;;20.41;27.52;100024.90;1768384;81;20973;-45
2022/10/11 11:46:26;;;;;;;1.92;1.45;;;;;;;20.77;28.07;100021.91;1768474;81;21091;-45
2022/10/11 11:48:53;;;;;;;1.98;1.40;;;;;;;21.41;27.28;100022.48;1767570;81;20998;-45
2022/10/11 11:51:24;;;;;;;2.65;1.47;;;;;;;21.86;25.03;100016.86;1744782;81;21009;-45
2022/10/11 11:54:21;;;;;;;1.90;1.50;;;;;;;22.01;24.13;100018.21;1768592;81;20941;-45
2022/10/11 11:57:02;;;;;;;1.87;1.42;;;;;;;22.00;23.83;100008.95;1772207;80;20998;-45
2022/10/11 11:59:38;;;;;;;4.58;1.80;;;;;;;21.88;24.54;100008.92;1746913;82;21293;-45